Time;durP1;ratioP1;P1;durP2;ratioP2;P2;SDS_P1;SDS_P2;PMS_P1;PMS_P2;Temp;Humidity;BMP_temperature;BMP_pressure;BME280_temperature;BME280_humidity;BME280_pressure;Samples;Min_cycle;Max_cycle;Signal;HPM_P1;HPM_P2
2023/08/10 00:00:08;;;;;;;2.17;1.13;;;;;;;;;;5089733;28;20238;-66
2023/08/10 00:02:36;;;;;;;1.90;1.20;;;;;;;;;;5099808;28;20290;-66
2023/08/10 00:05:05;;;;;;;1.43;1.07;;;;;;;;;;5099700;28;20215;-65
2023/08/10 00:07:34;;;;;;;2.80;1.40;;;;;;;;;;5099549;28;20665;-66
2023/08/10 00:10:03;;;;;;;2.33;1.40;;;;;;;;;;5099222;28;20313;-65
2023/08/10 00:12:31;;;;;;;3.77;1.57;;;;;;;;;;5099615;28;20202;-64
2023/08/10 00:14:58;;;;;;;1.50;1.23;;;;;;;;;;5099508;28;20215;-66
2023/08/10 00:17:26;;;;;;;4.17;3.20;;;;;;;;;;5099196;28;20211;-64
2023/08/10 00:19:54;;;;;;;1.77;1.20;;;;;;;;;;5099348;28;20251;-65
2023/08/10 00:22:22;;;;;;;3.17;2.03;;;;;;;;;;5099000;28;20213;-64
2023/08/10 00:24:51;;;;;;;2.83;2.53;;;;;;;;;;5098786;28;20239;-65
2023/08/10 00:27:19;;;;;;;1.70;1.60;;;;;;;;;;5099057;28;20550;-66
2023/08/10 00:29:47;;;;;;;1.77;1.60;;;;;;;;;;5086087;28;20215;-64
2023/08/10 00:32:15;;;;;;;2.87;1.90;;;;;;;;;;5098795;28;20252;-64
2023/08/10 00:34:43;;;;;;;1.47;1.30;;;;;;;;;;5098525;28;20680;-65
2023/08/10 00:37:11;;;;;;;3.47;1.50;;;;;;;;;;5098955;28;20218;-65
2023/08/10 00:39:38;;;;;;;1.80;1.40;;;;;;;;;;5097370;28;20684;-65
2023/08/10 00:42:08;;;;;;;2.53;1.53;;;;;;;;;;5093703;28;20201;-64
2023/08/10 00:44:35;;;;;;;1.47;1.27;;;;;;;;;;5098983;28;20217;-65
2023/08/10 00:47:03;;;;;;;1.73;1.30;;;;;;;;;;5099175;28;20634;-66
2023/08/10 00:49:31;;;;;;;1.87;1.00;;;;;;;;;;5098438;28;20565;-66
2023/08/10 00:51:59;;;;;;;1.47;1.23;;;;;;;;;;5098607;28;20346;-66
2023/08/10 00:54:27;;;;;;;3.03;1.50;;;;;;;;;;5098242;28;20569;-66
2023/08/10 00:56:55;;;;;;;3.17;1.50;;;;;;;;;;5098697;28;20213;-65
2023/08/10 00:59:24;;;;;;;1.30;0.97;;;;;;;;;;5092463;28;20209;-66
2023/08/10 01:01:52;;;;;;;1.30;1.20;;;;;;;;;;5095845;28;20794;-66
2023/08/10 01:04:20;;;;;;;6.43;1.43;;;;;;;;;;5098409;28;20209;-66
2023/08/10 01:06:51;;;;;;;5.07;1.40;;;;;;;;;;5098394;28;20208;-66
2023/08/10 01:09:23;;;;;;;2.23;1.00;;;;;;;;;;5098296;28;20293;-66
2023/08/10 01:11:54;;;;;;;2.93;1.47;;;;;;;;;;5098321;28;20235;-66
2023/08/10 01:14:28;;;;;;;2.40;1.10;;;;;;;;;;5098172;28;20205;-66
2023/08/10 01:16:58;;;;;;;2.30;1.40;;;;;;;;;;5098427;28;20212;-66
2023/08/10 01:19:27;;;;;;;3.10;1.50;;;;;;;;;;5098289;28;20217;-66
2023/08/10 01:22:02;;;;;;;3.03;1.27;;;;;;;;;;5098251;28;20657;-66
2023/08/10 01:24:32;;;;;;;2.43;1.20;;;;;;;;;;5098050;28;20284;-66
2023/08/10 01:27:03;;;;;;;1.20;1.10;;;;;;;;;;5098570;28;20642;-66
2023/08/10 01:29:30;;;;;;;5.43;1.50;;;;;;;;;;5097998;28;20722;-66
2023/08/10 01:31:58;;;;;;;1.13;1.00;;;;;;;;;;5097837;28;20317;-66
2023/08/10 01:34:26;;;;;;;1.13;1.10;;;;;;;;;;5097879;28;20254;-66
2023/08/10 01:36:54;;;;;;;1.17;1.10;;;;;;;;;;5097801;28;20251;-66
2023/08/10 01:39:22;;;;;;;2.80;1.33;;;;;;;;;;5097558;28;20625;-66
2023/08/10 01:41:50;;;;;;;2.37;1.30;;;;;;;;;;5091224;28;20227;-66
2023/08/10 01:44:19;;;;;;;2.03;1.10;;;;;;;;;;5097744;28;20803;-66
2023/08/10 01:46:47;;;;;;;6.83;1.77;;;;;;;;;;5096827;28;20208;-66
2023/08/10 01:49:15;;;;;;;2.93;1.60;;;;;;;;;;5097924;28;20249;-66
2023/08/10 01:51:43;;;;;;;1.07;1.00;;;;;;;;;;5097696;28;20709;-66
2023/08/10 01:54:11;;;;;;;1.80;1.20;;;;;;;;;;5097734;28;20212;-66
2023/08/10 01:56:39;;;;;;;4.03;1.20;;;;;;;;;;5097917;28;20295;-66
2023/08/10 01:59:07;;;;;;;1.07;0.90;;;;;;;;;;5094108;28;20327;-66
2023/08/10 02:01:36;;;;;;;1.37;1.27;;;;;;;;;;5091839;28;20331;-66
2023/08/10 02:04:04;;;;;;;1.90;1.20;;;;;;;;;;5097643;28;20626;-66
2023/08/10 02:06:37;;;;;;;1.37;1.27;;;;;;;;;;5097723;28;20205;-66
2023/08/10 02:09:05;;;;;;;1.60;1.50;;;;;;;;;;5097683;28;20205;-66
2023/08/10 02:11:33;;;;;;;3.83;1.40;;;;;;;;;;5097595;28;20236;-66
2023/08/10 02:14:01;;;;;;;4.90;1.10;;;;;;;;;;5097896;28;20211;-66
2023/08/10 02:16:29;;;;;;;1.90;1.23;;;;;;;;;;5097459;28;20589;-66
2023/08/10 02:18:58;;;;;;;3.37;1.20;;;;;;;;;;5097823;28;20209;-66
2023/08/10 02:21:26;;;;;;;2.60;1.27;;;;;;;;;;5097519;28;20227;-66
2023/08/10 02:23:54;;;;;;;2.43;1.10;;;;;;;;;;5097569;28;20294;-66
2023/08/10 02:26:22;;;;;;;1.23;1.13;;;;;;;;;;5097632;28;20211;-66
2023/08/10 02:28:49;;;;;;;2.10;1.17;;;;;;;;;;5097768;28;20213;-66
2023/08/10 02:31:17;;;;;;;1.33;1.13;;;;;;;;;;5097099;28;20236;-66
2023/08/10 02:33:45;;;;;;;2.93;1.33;;;;;;;;;;5097659;28;20295;-66
2023/08/10 02:36:14;;;;;;;1.77;1.30;;;;;;;;;;5097498;28;20238;-66
2023/08/10 02:38:42;;;;;;;1.20;1.10;;;;;;;;;;5097384;28;20245;-67
2023/08/10 02:41:10;;;;;;;1.63;1.17;;;;;;;;;;5089104;28;20226;-66
2023/08/10 02:43:38;;;;;;;2.00;1.27;;;;;;;;;;5097554;28;20220;-66
2023/08/10 02:46:05;;;;;;;2.27;1.13;;;;;;;;;;5097433;28;20214;-66
2023/08/10 02:48:33;;;;;;;1.07;1.03;;;;;;;;;;5097444;28;20213;-66
2023/08/10 02:51:01;;;;;;;2.77;1.10;;;;;;;;;;5097241;28;20262;-66
2023/08/10 02:53:30;;;;;;;1.43;1.10;;;;;;;;;;5096807;28;20252;-66
2023/08/10 02:55:58;;;;;;;1.90;1.10;;;;;;;;;;5097422;28;20200;-66
2023/08/10 02:58:26;;;;;;;1.23;1.10;;;;;;;;;;5100389;28;20211;-66
2023/08/10 03:00:54;;;;;;;1.33;1.23;;;;;;;;;;5091117;28;20304;-66
2023/08/10 03:03:22;;;;;;;3.43;1.40;;;;;;;;;;5100667;28;20217;-66
2023/08/10 03:05:50;;;;;;;1.30;1.20;;;;;;;;;;5100942;28;20215;-66
2023/08/10 03:08:18;;;;;;;1.17;1.07;;;;;;;;;;5100471;28;20201;-66
2023/08/10 03:10:47;;;;;;;1.70;1.40;;;;;;;;;;5100782;28;20229;-66
2023/08/10 03:13:15;;;;;;;1.77;1.20;;;;;;;;;;5100429;28;20265;-66
2023/08/10 03:15:43;;;;;;;2.37;1.43;;;;;;;;;;5100510;28;20726;-66
2023/08/10 03:18:10;;;;;;;4.00;1.43;;;;;;;;;;5100404;28;20212;-66
2023/08/10 03:20:38;;;;;;;3.83;1.50;;;;;;;;;;5100624;28;20262;-66
2023/08/10 03:23:06;;;;;;;1.30;1.00;;;;;;;;;;5100165;28;20664;-66
2023/08/10 03:25:34;;;;;;;1.70;1.40;;;;;;;;;;5100291;28;20226;-66
2023/08/10 03:28:03;;;;;;;2.53;1.27;;;;;;;;;;5100217;28;20245;-66
2023/08/10 03:30:32;;;;;;;1.80;1.10;;;;;;;;;;5100312;28;20249;-65
2023/08/10 03:33:00;;;;;;;3.23;1.23;;;;;;;;;;5099984;28;20275;-66
2023/08/10 03:35:28;;;;;;;1.07;0.97;;;;;;;;;;5100353;28;20210;-66
2023/08/10 03:37:56;;;;;;;1.17;1.00;;;;;;;;;;5100045;28;20209;-66
2023/08/10 03:40:23;;;;;;;2.40;1.23;;;;;;;;;;5092735;28;20215;-66
2023/08/10 03:42:51;;;;;;;2.33;1.20;;;;;;;;;;5087136;28;20197;-66
2023/08/10 03:45:20;;;;;;;1.67;1.20;;;;;;;;;;5100096;28;20217;-66
2023/08/10 03:47:48;;;;;;;3.07;1.43;;;;;;;;;;5100173;28;20710;-66
2023/08/10 03:50:16;;;;;;;2.03;1.37;;;;;;;;;;5099948;28;20229;-66
2023/08/10 03:52:43;;;;;;;1.30;1.20;;;;;;;;;;5099591;28;20247;-66
2023/08/10 03:55:12;;;;;;;1.17;1.10;;;;;;;;;;5099398;28;20293;-66
2023/08/10 03:57:40;;;;;;;1.47;1.33;;;;;;;;;;5099711;28;20713;-66
2023/08/10 04:00:08;;;;;;;1.30;1.20;;;;;;;;;;5089692;28;20666;-65
2023/08/10 04:02:39;;;;;;;1.63;1.43;;;;;;;;;;5099847;28;20216;-66
2023/08/10 04:05:10;;;;;;;1.77;1.33;;;;;;;;;;5099784;28;20652;-66
2023/08/10 04:07:38;;;;;;;16.23;6.17;;;;;;;;;;5099375;28;20217;-66
2023/08/10 04:10:06;;;;;;;23.27;8.17;;;;;;;;;;5098347;28;20229;-64
2023/08/10 04:12:34;;;;;;;42.03;15.60;;;;;;;;;;5099289;28;20573;-65
2023/08/10 04:15:03;;;;;;;41.00;17.67;;;;;;;;;;5099201;28;20218;-64
2023/08/10 04:17:30;;;;;;;40.53;17.07;;;;;;;;;;5099525;28;20205;-64
2023/08/10 04:19:59;;;;;;;55.97;21.63;;;;;;;;;;5099341;28;20767;-64
2023/08/10 04:22:28;;;;;;;62.67;23.27;;;;;;;;;;5099332;28;20201;-64
2023/08/10 04:24:56;;;;;;;45.90;18.07;;;;;;;;;;5098871;28;20643;-64
2023/08/10 04:27:23;;;;;;;46.30;17.97;;;;;;;;;;5099345;28;20668;-65
2023/08/10 04:29:54;;;;;;;56.03;21.00;;;;;;;;;;5099498;28;20270;-64
2023/08/10 04:32:22;;;;;;;108.40;38.60;;;;;;;;;;5099033;28;20221;-64
2023/08/10 04:34:50;;;;;;;195.07;61.23;;;;;;;;;;5099521;28;20913;-66
2023/08/10 04:37:20;;;;;;;206.27;69.50;;;;;;;;;;5098950;28;20215;-65
2023/08/10 04:39:48;;;;;;;77.27;28.90;;;;;;;;;;5096118;28;20220;-64
2023/08/10 04:42:16;;;;;;;61.83;21.73;;;;;;;;;;5094876;28;20233;-64
2023/08/10 04:44:44;;;;;;;64.23;24.50;;;;;;;;;;5099022;28;20289;-65
2023/08/10 04:47:12;;;;;;;52.17;21.50;;;;;;;;;;5098650;28;20218;-66
2023/08/10 04:49:39;;;;;;;19.57;7.57;;;;;;;;;;5098748;28;20201;-64
2023/08/10 04:52:07;;;;;;;22.23;10.00;;;;;;;;;;5098685;28;20224;-65
2023/08/10 04:54:37;;;;;;;24.53;9.87;;;;;;;;;;5098335;28;20229;-64
2023/08/10 04:57:05;;;;;;;11.90;5.27;;;;;;;;;;5098539;28;20240;-64
2023/08/10 04:59:33;;;;;;;5.27;3.00;;;;;;;;;;5090634;28;20217;-64
2023/08/10 05:02:00;;;;;;;4.73;2.07;;;;;;;;;;5096974;28;20574;-64
2023/08/10 05:04:28;;;;;;;2.50;1.60;;;;;;;;;;5098658;28;20279;-64
2023/08/10 05:06:57;;;;;;;1.53;1.43;;;;;;;;;;5098433;28;20239;-65
2023/08/10 05:09:24;;;;;;;2.73;1.50;;;;;;;;;;5098103;28;20233;-65
2023/08/10 05:11:54;;;;;;;2.73;1.50;;;;;;;;;;5098108;28;20233;-65
2023/08/10 05:14:21;;;;;;;3.37;2.00;;;;;;;;;;5098303;28;20232;-65
2023/08/10 05:16:49;;;;;;;2.30;1.70;;;;;;;;;;5098256;28;20602;-64
2023/08/10 05:19:17;;;;;;;3.90;1.47;;;;;;;;;;5098301;28;20293;-64
2023/08/10 05:21:45;;;;;;;4.13;1.70;;;;;;;;;;5098112;28;20225;-65
2023/08/10 05:24:12;;;;;;;2.07;1.40;;;;;;;;;;5098041;28;20201;-64
2023/08/10 05:26:42;;;;;;;2.20;1.40;;;;;;;;;;5098009;28;20612;-65
2023/08/10 05:29:14;;;;;;;2.30;1.20;;;;;;;;;;5098163;28;20293;-65
2023/08/10 05:31:44;;;;;;;2.53;1.47;;;;;;;;;;5098169;28;20248;-65
2023/08/10 05:34:12;;;;;;;4.13;1.67;;;;;;;;;;5097823;28;20229;-66
2023/08/10 05:36:40;;;;;;;4.37;2.10;;;;;;;;;;5097875;28;20201;-65
2023/08/10 05:39:09;;;;;;;2.93;1.50;;;;;;;;;;5097832;28;20205;-64
2023/08/10 05:41:38;;;;;;;1.57;1.47;;;;;;;;;;5092082;28;20221;-65
2023/08/10 05:44:06;;;;;;;2.10;1.40;;;;;;;;;;5098045;28;20202;-66
2023/08/10 05:46:48;;;;;;;1.73;1.60;;;;;;;;;;5098046;28;20288;-64
2023/08/10 05:49:16;;;;;;;2.30;1.50;;;;;;;;;;5098051;28;20687;-65
2023/08/10 05:51:43;;;;;;;3.30;1.33;;;;;;;;;;5097764;28;20696;-65
2023/08/10 05:54:11;;;;;;;3.10;1.43;;;;;;;;;;5097421;28;20313;-66
2023/08/10 05:56:40;;;;;;;2.47;1.43;;;;;;;;;;5097892;28;20204;-66
2023/08/10 05:59:07;;;;;;;2.20;1.50;;;;;;;;;;5093786;28;20666;-66
2023/08/10 06:01:36;;;;;;;2.63;1.60;;;;;;;;;;5091968;28;20245;-66
2023/08/10 06:04:05;;;;;;;3.33;1.50;;;;;;;;;;5097844;28;20716;-66
2023/08/10 06:06:32;;;;;;;2.77;1.27;;;;;;;;;;5097724;28;20235;-66
2023/08/10 06:09:00;;;;;;;6.60;2.03;;;;;;;;;;5097390;28;20568;-66
2023/08/10 06:11:32;;;;;;;1.83;1.33;;;;;;;;;;5097693;28;20262;-66
2023/08/10 06:14:15;;;;;;;3.20;1.60;;;;;;;;;;5097801;28;20677;-66
2023/08/10 06:16:44;;;;;;;5.63;1.47;;;;;;;;;;5097698;28;20262;-66
2023/08/10 06:19:12;;;;;;;3.60;1.20;;;;;;;;;;5097790;28;20235;-66
2023/08/10 06:21:40;;;;;;;6.83;1.40;;;;;;;;;;5097507;28;20229;-66
2023/08/10 06:24:09;;;;;;;1.43;1.10;;;;;;;;;;5097236;28;20207;-66
2023/08/10 06:26:37;;;;;;;3.33;1.50;;;;;;;;;;5084523;28;20208;-65
2023/08/10 06:29:05;;;;;;;2.33;1.40;;;;;;;;;;5097679;28;20203;-66
2023/08/10 06:31:33;;;;;;;3.10;1.37;;;;;;;;;;5097708;28;20232;-65
2023/08/10 06:34:03;;;;;;;3.80;1.60;;;;;;;;;;5101105;28;20284;-65
2023/08/10 06:36:30;;;;;;;1.70;1.30;;;;;;;;;;5101420;28;20648;-64
2023/08/10 06:38:58;;;;;;;3.27;1.20;;;;;;;;;;5101151;28;20207;-64
2023/08/10 06:41:26;;;;;;;1.73;1.60;;;;;;;;;;5093944;28;20717;-64
2023/08/10 06:43:54;;;;;;;4.20;1.50;;;;;;;;;;5100983;28;20224;-64
2023/08/10 06:46:22;;;;;;;2.60;1.40;;;;;;;;;;5101014;28;20206;-65
2023/08/10 06:48:51;;;;;;;1.67;1.10;;;;;;;;;;5101228;28;20210;-66
2023/08/10 06:51:20;;;;;;;3.67;1.60;;;;;;;;;;5100711;28;20248;-66
2023/08/10 06:53:47;;;;;;;3.57;1.30;;;;;;;;;;5100417;28;20221;-64
2023/08/10 06:56:15;;;;;;;3.73;1.90;;;;;;;;;;5100890;28;20202;-65
2023/08/10 06:58:43;;;;;;;4.20;1.50;;;;;;;;;;5100361;28;20650;-65
2023/08/10 07:01:31;;;;;;;4.57;1.70;;;;;;;;;;5094340;28;20244;-65
2023/08/10 07:03:59;;;;;;;1.53;1.43;;;;;;;;;;5100722;28;20567;-65
2023/08/10 07:06:28;;;;;;;1.60;1.50;;;;;;;;;;5100725;28;20269;-65
2023/08/10 07:08:56;;;;;;;5.13;1.73;;;;;;;;;;5100676;28;20217;-64
2023/08/10 07:11:24;;;;;;;5.30;1.80;;;;;;;;;;5100770;28;20237;-66
2023/08/10 07:13:52;;;;;;;1.73;1.63;;;;;;;;;;5100636;28;20230;-65
2023/08/10 07:16:19;;;;;;;2.07;1.40;;;;;;;;;;5100728;28;20206;-65
2023/08/10 07:18:47;;;;;;;2.03;1.43;;;;;;;;;;5100777;28;20710;-65
2023/08/10 07:21:15;;;;;;;1.47;1.20;;;;;;;;;;5100385;28;20231;-66
2023/08/10 07:23:45;;;;;;;2.57;1.40;;;;;;;;;;5100311;28;20216;-66
2023/08/10 07:26:12;;;;;;;3.33;1.63;;;;;;;;;;5100320;28;20298;-66
2023/08/10 07:28:40;;;;;;;3.53;1.90;;;;;;;;;;5100341;28;20216;-66
2023/08/10 07:31:08;;;;;;;1.77;1.50;;;;;;;;;;5100288;28;20295;-66
2023/08/10 07:33:37;;;;;;;4.33;1.80;;;;;;;;;;5100110;28;20655;-66
2023/08/10 07:36:05;;;;;;;2.93;1.63;;;;;;;;;;5100088;28;20212;-66
2023/08/10 07:38:33;;;;;;;3.37;1.50;;;;;;;;;;5100007;28;20201;-66
2023/08/10 07:41:02;;;;;;;3.57;1.63;;;;;;;;;;5092606;28;20223;-66
2023/08/10 07:43:30;;;;;;;3.03;1.50;;;;;;;;;;5099969;28;20306;-66
2023/08/10 07:45:58;;;;;;;1.80;1.60;;;;;;;;;;5099808;28;20207;-67
2023/08/10 07:48:25;;;;;;;2.20;1.20;;;;;;;;;;5099944;28;20233;-66
2023/08/10 07:50:54;;;;;;;3.87;1.67;;;;;;;;;;5086230;28;20599;-65
2023/08/10 07:53:23;;;;;;;1.70;1.57;;;;;;;;;;5099690;28;20212;-66
2023/08/10 07:55:51;;;;;;;3.50;2.17;;;;;;;;;;5099499;28;20231;-66
2023/08/10 07:58:22;;;;;;;2.90;1.63;;;;;;;;;;5099161;28;20218;-65
2023/08/10 08:00:53;;;;;;;2.97;1.53;;;;;;;;;;5089288;28;20673;-66
2023/08/10 08:03:21;;;;;;;4.20;1.97;;;;;;;;;;5099672;28;20205;-66
2023/08/10 08:05:49;;;;;;;3.47;1.77;;;;;;;;;;5099465;28;20201;-66
2023/08/10 08:08:17;;;;;;;6.00;1.60;;;;;;;;;;5099086;28;20212;-66
2023/08/10 08:10:45;;;;;;;7.83;2.10;;;;;;;;;;5099379;28;20229;-66
2023/08/10 08:13:13;;;;;;;3.47;1.87;;;;;;;;;;5099560;28;20233;-66
2023/08/10 08:15:43;;;;;;;4.03;1.77;;;;;;;;;;5099463;28;20256;-66
2023/08/10 08:18:29;;;;;;;3.40;1.70;;;;;;;;;;5099215;28;20207;-66
2023/08/10 08:20:57;;;;;;;2.57;1.57;;;;;;;;;;5099179;28;20232;-66
2023/08/10 08:23:25;;;;;;;5.77;2.00;;;;;;;;;;5099215;28;20274;-66
2023/08/10 08:25:53;;;;;;;2.60;1.60;;;;;;;;;;5099342;28;20202;-66
2023/08/10 08:28:20;;;;;;;3.80;1.33;;;;;;;;;;5099118;28;20209;-65
2023/08/10 08:30:49;;;;;;;4.00;1.63;;;;;;;;;;5098834;28;20225;-65
2023/08/10 08:33:17;;;;;;;2.53;1.30;;;;;;;;;;5098981;28;20293;-65
2023/08/10 08:35:46;;;;;;;3.27;1.73;;;;;;;;;;5098866;28;20225;-66
2023/08/10 08:38:14;;;;;;;9.67;1.60;;;;;;;;;;5098792;28;20210;-65
2023/08/10 08:40:42;;;;;;;2.40;1.37;;;;;;;;;;5091594;28;20758;-66
2023/08/10 08:43:10;;;;;;;5.67;1.23;;;;;;;;;;5099086;28;20214;-66
2023/08/10 08:45:39;;;;;;;2.73;1.40;;;;;;;;;;5098688;28;20203;-65
2023/08/10 08:48:09;;;;;;;1.50;1.40;;;;;;;;;;5099004;28;20291;-64
2023/08/10 08:50:37;;;;;;;3.10;2.07;;;;;;;;;;5098833;28;20340;-66
2023/08/10 08:53:05;;;;;;;3.77;1.47;;;;;;;;;;5098575;28;20226;-65
2023/08/10 08:55:33;;;;;;;2.37;1.60;;;;;;;;;;5098302;28;20232;-66
2023/08/10 08:58:01;;;;;;;1.87;1.70;;;;;;;;;;5098782;28;20211;-66
2023/08/10 09:00:30;;;;;;;2.40;1.33;;;;;;;;;;5088328;28;20239;-66
2023/08/10 09:02:57;;;;;;;3.73;1.30;;;;;;;;;;5098713;28;20227;-66
2023/08/10 09:05:26;;;;;;;11.30;1.60;;;;;;;;;;5098589;28;20203;-66
2023/08/10 09:07:54;;;;;;;2.33;1.40;;;;;;;;;;5097923;28;20243;-66
2023/08/10 09:10:22;;;;;;;3.80;1.47;;;;;;;;;;5098384;28;20228;-66
2023/08/10 09:12:50;;;;;;;6.97;1.63;;;;;;;;;;5098290;28;20216;-65
2023/08/10 09:15:19;;;;;;;1.67;1.33;;;;;;;;;;5098197;28;20227;-66
2023/08/10 09:17:47;;;;;;;7.93;1.60;;;;;;;;;;5098153;28;20212;-66
2023/08/10 09:20:19;;;;;;;5.07;1.43;;;;;;;;;;5098383;28;20270;-65
2023/08/10 09:22:49;;;;;;;1.73;1.33;;;;;;;;;;5097973;28;20235;-65
2023/08/10 09:25:17;;;;;;;1.30;1.20;;;;;;;;;;5098405;28;20237;-66
2023/08/10 09:27:47;;;;;;;1.40;1.20;;;;;;;;;;5098027;28;20567;-65
2023/08/10 09:30:15;;;;;;;3.27;1.40;;;;;;;;;;5097944;28;20311;-66
2023/08/10 09:32:43;;;;;;;1.67;1.30;;;;;;;;;;5097893;28;20212;-65
2023/08/10 09:35:12;;;;;;;2.00;1.50;;;;;;;;;;5098147;28;20317;-65
2023/08/10 09:37:40;;;;;;;1.97;1.33;;;;;;;;;;5097700;28;20210;-66
2023/08/10 09:40:11;;;;;;;3.77;1.33;;;;;;;;;;5092866;28;20226;-66
2023/08/10 09:42:40;;;;;;;3.80;1.50;;;;;;;;;;5096817;28;20257;-66
2023/08/10 09:45:09;;;;;;;3.60;1.47;;;;;;;;;;5098172;28;20208;-66
2023/08/10 09:47:37;;;;;;;4.73;1.60;;;;;;;;;;5097955;28;20236;-66
2023/08/10 09:50:06;;;;;;;1.63;1.40;;;;;;;;;;5097581;28;20233;-66
2023/08/10 09:52:36;;;;;;;1.93;1.63;;;;;;;;;;5097511;28;20210;-66
2023/08/10 09:55:04;;;;;;;3.20;1.47;;;;;;;;;;5097710;28;20219;-66
2023/08/10 09:57:34;;;;;;;2.20;1.60;;;;;;;;;;5097707;28;20212;-65
2023/08/10 10:00:04;;;;;;;3.27;1.37;;;;;;;;;;5087713;28;20239;-65
2023/08/10 10:02:32;;;;;;;2.90;1.70;;;;;;;;;;5098108;28;20200;-65
2023/08/10 10:05:00;;;;;;;5.83;2.00;;;;;;;;;;5097860;28;20231;-65
2023/08/10 10:07:29;;;;;;;2.47;1.60;;;;;;;;;;5099541;28;20300;-65
2023/08/10 10:09:57;;;;;;;3.87;1.63;;;;;;;;;;5101541;28;20250;-65
2023/08/10 10:12:25;;;;;;;2.23;1.93;;;;;;;;;;5101683;28;20690;-65
2023/08/10 10:14:54;;;;;;;1.50;1.40;;;;;;;;;;5101873;28;20320;-66
2023/08/10 10:17:23;;;;;;;1.73;1.40;;;;;;;;;;5101896;28;20233;-65
2023/08/10 10:19:51;;;;;;;2.10;1.20;;;;;;;;;;5101676;28;20250;-66
2023/08/10 10:22:20;;;;;;;4.93;1.30;;;;;;;;;;5101658;28;20206;-66
2023/08/10 10:24:48;;;;;;;2.73;1.23;;;;;;;;;;5101204;28;20217;-66
2023/08/10 10:27:16;;;;;;;2.07;1.50;;;;;;;;;;5101757;28;20210;-65
2023/08/10 10:29:51;;;;;;;1.67;1.43;;;;;;;;;;5101314;28;20250;-65
2023/08/10 10:32:20;;;;;;;1.80;1.40;;;;;;;;;;5101551;28;20207;-65
2023/08/10 10:34:49;;;;;;;2.70;1.40;;;;;;;;;;5101577;28;20207;-65
2023/08/10 10:37:18;;;;;;;3.43;1.57;;;;;;;;;;5101021;28;20710;-65
2023/08/10 10:39:50;;;;;;;2.70;1.57;;;;;;;;;;5098789;28;20234;-65
2023/08/10 10:42:19;;;;;;;2.40;1.30;;;;;;;;;;5098431;28;20213;-65
2023/08/10 10:45:00;;;;;;;3.07;1.50;;;;;;;;;;5101392;28;20204;-66
2023/08/10 10:47:37;;;;;;;1.73;1.50;;;;;;;;;;5101295;28;20233;-66
2023/08/10 10:50:15;;;;;;;2.93;1.93;;;;;;;;;;5100877;28;20609;-66
2023/08/10 10:52:50;;;;;;;2.10;1.67;;;;;;;;;;5100874;28;20212;-65
2023/08/10 10:55:17;;;;;;;3.47;1.70;;;;;;;;;;5101188;28;20208;-66
2023/08/10 10:57:47;;;;;;;3.97;1.13;;;;;;;;;;5101069;28;20685;-66
2023/08/10 11:00:15;;;;;;;2.57;1.60;;;;;;;;;;5090452;28;20248;-65
2023/08/10 11:02:46;;;;;;;3.27;2.10;;;;;;;;;;5099746;28;20209;-65
2023/08/10 11:05:14;;;;;;;3.67;1.80;;;;;;;;;;5099688;28;20208;-65
2023/08/10 11:07:42;;;;;;;3.40;1.50;;;;;;;;;;5099402;28;20208;-65
2023/08/10 11:10:10;;;;;;;3.67;1.50;;;;;;;;;;5099570;28;20694;-66
2023/08/10 11:12:41;;;;;;;3.23;1.60;;;;;;;;;;5099686;28;20708;-65
2023/08/10 11:15:10;;;;;;;2.83;1.30;;;;;;;;;;5099540;28;20210;-66
2023/08/10 11:17:38;;;;;;;3.60;1.63;;;;;;;;;;5098824;28;20624;-65
2023/08/10 11:20:18;;;;;;;4.93;3.17;;;;;;;;;;5099275;28;20723;-65
2023/08/10 11:22:46;;;;;;;5.63;3.20;;;;;;;;;;5099059;28;20220;-65
2023/08/10 11:25:15;;;;;;;3.90;2.43;;;;;;;;;;5099273;28;20217;-65
2023/08/10 11:27:44;;;;;;;5.70;2.47;;;;;;;;;;5099384;28;20671;-65
2023/08/10 11:30:13;;;;;;;5.37;2.77;;;;;;;;;;5099114;28;20224;-65
2023/08/10 11:32:41;;;;;;;2.53;2.17;;;;;;;;;;5099281;28;20269;-65
2023/08/10 11:35:10;;;;;;;7.03;1.90;;;;;;;;;;5099050;28;20557;-65
2023/08/10 11:37:42;;;;;;;7.37;2.00;;;;;;;;;;5098528;28;20231;-65
2023/08/10 11:40:12;;;;;;;1.80;1.50;;;;;;;;;;5093460;28;20255;-65
2023/08/10 11:42:40;;;;;;;1.57;1.47;;;;;;;;;;5098379;28;20217;-66
2023/08/10 11:45:09;;;;;;;2.30;1.40;;;;;;;;;;5099096;28;20210;-66
2023/08/10 11:47:41;;;;;;;5.43;1.90;;;;;;;;;;5099013;28;20231;-66
2023/08/10 11:50:16;;;;;;;1.50;1.37;;;;;;;;;;5098909;28;20231;-65
2023/08/10 11:52:45;;;;;;;1.33;1.20;;;;;;;;;;5098720;28;20208;-66
2023/08/10 11:55:13;;;;;;;2.93;1.17;;;;;;;;;;5098864;28;20207;-66
2023/08/10 11:57:43;;;;;;;2.60;1.57;;;;;;;;;;5098466;28;20260;-66
2023/08/10 12:00:22;;;;;;;1.60;1.30;;;;;;;;;;5044603;28;1268034;-66
2023/08/10 12:03:00;;;;;;;2.00;1.60;;;;;;;;;;5099931;28;20206;-66
2023/08/10 12:05:33;;;;;;;1.93;1.23;;;;;;;;;;5099762;28;20205;-72
2023/08/10 12:08:03;;;;;;;1.80;1.30;;;;;;;;;;5099167;28;20204;-73
2023/08/10 12:10:37;;;;;;;1.50;1.13;;;;;;;;;;5099343;28;20232;-73
2023/08/10 12:13:07;;;;;;;4.10;1.50;;;;;;;;;;5099584;28;20293;-73
2023/08/10 12:15:37;;;;;;;1.27;1.17;;;;;;;;;;5099620;28;20218;-69
2023/08/10 12:18:05;;;;;;;3.63;1.80;;;;;;;;;;5099465;28;20245;-70
2023/08/10 12:20:33;;;;;;;3.07;1.40;;;;;;;;;;5099237;28;20569;-69
2023/08/10 12:23:03;;;;;;;2.83;1.30;;;;;;;;;;5098240;28;20242;-69
2023/08/10 12:25:31;;;;;;;4.23;1.80;;;;;;;;;;5099336;28;20244;-69
2023/08/10 12:27:58;;;;;;;4.50;1.70;;;;;;;;;;5099205;28;20765;-68
2023/08/10 12:30:27;;;;;;;1.67;1.40;;;;;;;;;;5098401;28;20228;-66
2023/08/10 12:32:54;;;;;;;1.70;1.60;;;;;;;;;;5099191;28;20264;-71
2023/08/10 12:35:22;;;;;;;1.53;1.43;;;;;;;;;;5099029;28;20211;-70
2023/08/10 12:37:50;;;;;;;1.53;1.30;;;;;;;;;;5098732;28;20234;-69
2023/08/10 12:40:19;;;;;;;2.20;1.33;;;;;;;;;;5092605;28;20218;-70
2023/08/10 12:42:47;;;;;;;2.20;1.47;;;;;;;;;;5085513;28;20277;-69
2023/08/10 12:45:17;;;;;;;2.80;1.40;;;;;;;;;;5098702;28;20212;-70
2023/08/10 12:47:45;;;;;;;1.60;1.50;;;;;;;;;;5098792;28;20202;-70
2023/08/10 12:50:14;;;;;;;3.03;1.83;;;;;;;;;;5098563;28;20227;-71
2023/08/10 12:52:42;;;;;;;3.57;1.57;;;;;;;;;;5098515;28;20248;-70
2023/08/10 12:55:10;;;;;;;2.63;1.60;;;;;;;;;;5098863;28;20290;-67
2023/08/10 12:57:40;;;;;;;3.00;1.50;;;;;;;;;;5098015;28;20286;-68
2023/08/10 13:00:09;;;;;;;1.73;1.50;;;;;;;;;;5097557;28;20322;-66
2023/08/10 13:02:37;;;;;;;1.50;1.40;;;;;;;;;;5095455;28;20667;-66
2023/08/10 13:05:05;;;;;;;1.50;1.40;;;;;;;;;;5091949;28;20240;-67
2023/08/10 13:07:34;;;;;;;1.70;1.30;;;;;;;;;;5096295;28;20668;-67
2023/08/10 13:10:02;;;;;;;2.90;1.40;;;;;;;;;;5092087;28;20233;-66
2023/08/10 13:12:30;;;;;;;1.87;1.60;;;;;;;;;;5097859;28;20225;-67
2023/08/10 13:15:00;;;;;;;2.37;1.63;;;;;;;;;;5092063;28;20237;-67
2023/08/10 13:17:28;;;;;;;4.63;1.50;;;;;;;;;;5095303;28;20221;-67
2023/08/10 13:19:58;;;;;;;3.53;1.67;;;;;;;;;;5098062;28;20317;-66
2023/08/10 13:22:27;;;;;;;3.97;1.23;;;;;;;;;;5091875;28;20651;-66
2023/08/10 13:24:55;;;;;;;2.20;1.47;;;;;;;;;;5094794;28;20199;-66
2023/08/10 13:27:23;;;;;;;3.13;1.53;;;;;;;;;;5096121;28;20202;-67
2023/08/10 13:29:51;;;;;;;2.65;1.48;;;;;;;;;;5093166;28;20252;-66
2023/08/10 13:32:20;;;;;;;2.20;1.35;;;;;;;;;;5095203;28;20212;-67
2023/08/10 13:34:48;;;;;;;2.10;1.50;;;;;;;;;;5096160;28;20211;-67
2023/08/10 13:37:16;;;;;;;1.85;1.45;;;;;;;;;;5096023;28;20273;-67
2023/08/10 13:39:44;;;;;;;2.83;1.50;;;;;;;;;;5093278;28;20672;-67
2023/08/10 13:42:12;;;;;;;1.75;1.50;;;;;;;;;;5092519;28;20209;-67
2023/08/10 13:44:39;;;;;;;3.92;1.60;;;;;;;;;;5095947;28;20209;-67
2023/08/10 13:47:07;;;;;;;2.10;1.42;;;;;;;;;;5096146;28;20262;-67
2023/08/10 13:49:36;;;;;;;2.78;1.80;;;;;;;;;;5096423;28;20205;-67
2023/08/10 13:52:23;;;;;;;3.00;2.00;;;;;;;;;;5097543;28;20207;-67
2023/08/10 13:54:51;;;;;;;2.78;1.58;;;;;;;;;;5097741;28;20286;-67
2023/08/10 13:57:19;;;;;;;4.10;2.45;;;;;;;;;;5097921;28;20211;-67
2023/08/10 13:59:47;;;;;;;3.30;1.70;;;;;;;;;;5088312;28;20264;-67
2023/08/10 14:02:15;;;;;;;2.53;1.55;;;;;;;;;;5084753;28;20288;-67
2023/08/10 14:04:45;;;;;;;2.28;1.88;;;;;;;;;;5097949;28;20205;-67
2023/08/10 14:07:13;;;;;;;2.28;1.50;;;;;;;;;;5097737;28;20680;-67
2023/08/10 14:09:40;;;;;;;2.55;1.48;;;;;;;;;;5097473;28;20205;-67
2023/08/10 14:12:09;;;;;;;2.85;1.50;;;;;;;;;;5097717;28;20301;-67
2023/08/10 14:14:37;;;;;;;2.05;1.55;;;;;;;;;;5097794;28;20288;-76
2023/08/10 14:17:05;;;;;;;4.20;1.50;;;;;;;;;;5097598;28;20212;-72
2023/08/10 14:19:34;;;;;;;3.00;1.60;;;;;;;;;;5097228;28;20229;-75
2023/08/10 14:22:03;;;;;;;1.73;1.52;;;;;;;;;;5097321;28;20205;-76
2023/08/10 14:24:31;;;;;;;1.88;1.52;;;;;;;;;;5097392;28;20231;-75
2023/08/10 14:26:59;;;;;;;1.77;1.60;;;;;;;;;;5097279;28;20210;-75
2023/08/10 14:29:27;;;;;;;2.88;1.65;;;;;;;;;;5097810;28;20287;-75
2023/08/10 14:31:55;;;;;;;6.63;1.67;;;;;;;;;;5097714;28;20206;-74
2023/08/10 14:34:22;;;;;;;3.80;3.10;;;;;;;;;;5097833;28;20699;-75
2023/08/10 14:36:52;;;;;;;3.53;1.48;;;;;;;;;;5097688;28;20216;-75
2023/08/10 14:39:21;;;;;;;2.13;1.45;;;;;;;;;;5097327;28;20310;-75
2023/08/10 14:41:58;;;;;;;2.47;1.70;;;;;;;;;;5089520;28;20274;-74
2023/08/10 14:44:43;;;;;;;2.08;1.80;;;;;;;;;;5097845;28;20201;-75
2023/08/10 14:47:22;;;;;;;3.63;1.77;;;;;;;;;;5097452;28;20201;-74
2023/08/10 14:49:58;;;;;;;1.65;1.48;;;;;;;;;;5097439;28;20225;-73